Terminal Aerodrome Forecast
Issued by NWS

Home | Current Version | Previous Version | Text Only | Print | Product List | Glossary On
Versions: 1 2 3 4 5 6 7 8 9 10 11 12 13 14 15 16
484
FTUS43 KJKL 091200 AAA
TAFSME
TAF AMD
KSME 091200Z 0912/1012 28008KT P6SM VCSH SCT035 SCT045 OVC050
     FM091500 28006G16KT 5SM -SN BKN010 OVC040=

USA.gov is the U.S. government's official web portal to all federal, state and local government web resources and services.